sensor_id;sensor_type;location;lat;lon;timestamp;P1;durP1;ratioP1;P2;durP2;ratioP2
20739;SDS011;10530;49.968;19.844;2023-12-29T00:04:49;32.67;;;12.05;;
20739;SDS011;10530;49.968;19.844;2023-12-29T00:09:52;30.10;;;11.83;;
20739;SDS011;10530;49.968;19.844;2023-12-29T00:14:56;31.40;;;12.38;;
20739;SDS011;10530;49.968;19.844;2023-12-29T00:19:58;30.50;;;12.32;;
20739;SDS011;10530;49.968;19.844;2023-12-29T00:25:01;30.33;;;11.43;;
20739;SDS011;10530;49.968;19.844;2023-12-29T00:30:05;34.72;;;13.32;;
20739;SDS011;10530;49.968;19.844;2023-12-29T00:35:08;29.43;;;12.90;;
20739;SDS011;10530;49.968;19.844;2023-12-29T00:40:11;36.53;;;14.82;;
20739;SDS011;10530;49.968;19.844;2023-12-29T00:45:15;35.88;;;14.00;;
20739;SDS011;10530;49.968;19.844;2023-12-29T00:50:18;29.93;;;11.33;;
20739;SDS011;10530;49.968;19.844;2023-12-29T00:55:21;45.92;;;15.40;;
20739;SDS011;10530;49.968;19.844;2023-12-29T01:00:23;38.67;;;13.17;;
20739;SDS011;10530;49.968;19.844;2023-12-29T01:05:27;32.25;;;13.10;;
20739;SDS011;10530;49.968;19.844;2023-12-29T01:10:30;34.15;;;12.00;;
20739;SDS011;10530;49.968;19.844;2023-12-29T01:15:32;30.30;;;11.30;;
20739;SDS011;10530;49.968;19.844;2023-12-29T01:20:35;27.15;;;12.02;;
20739;SDS011;10530;49.968;19.844;2023-12-29T01:25:38;34.33;;;12.53;;
20739;SDS011;10530;49.968;19.844;2023-12-29T01:30:41;40.10;;;15.32;;
20739;SDS011;10530;49.968;19.844;2023-12-29T01:35:44;40.53;;;15.57;;
20739;SDS011;10530;49.968;19.844;2023-12-29T01:40:47;35.60;;;14.83;;
20739;SDS011;10530;49.968;19.844;2023-12-29T01:45:50;39.75;;;16.40;;
20739;SDS011;10530;49.968;19.844;2023-12-29T01:50:59;42.63;;;15.47;;
20739;SDS011;10530;49.968;19.844;2023-12-29T01:56:02;37.00;;;14.32;;
20739;SDS011;10530;49.968;19.844;2023-12-29T02:01:05;36.40;;;14.25;;
20739;SDS011;10530;49.968;19.844;2023-12-29T02:06:10;36.80;;;12.80;;
20739;SDS011;10530;49.968;19.844;2023-12-29T02:11:13;33.13;;;12.93;;
20739;SDS011;10530;49.968;19.844;2023-12-29T02:16:18;33.97;;;13.93;;
20739;SDS011;10530;49.968;19.844;2023-12-29T02:21:29;30.90;;;11.80;;
20739;SDS011;10530;49.968;19.844;2023-12-29T02:26:32;27.13;;;10.98;;
20739;SDS011;10530;49.968;19.844;2023-12-29T02:31:38;35.20;;;11.97;;
20739;SDS011;10530;49.968;19.844;2023-12-29T02:36:44;23.75;;;9.40;;
20739;SDS011;10530;49.968;19.844;2023-12-29T02:41:48;21.93;;;8.33;;
20739;SDS011;10530;49.968;19.844;2023-12-29T02:46:51;7.93;;;3.22;;
20739;SDS011;10530;49.968;19.844;2023-12-29T02:51:54;9.60;;;3.67;;
20739;SDS011;10530;49.968;19.844;2023-12-29T02:56:57;2.37;;;0.80;;
20739;SDS011;10530;49.968;19.844;2023-12-29T03:02:00;4.88;;;1.52;;
20739;SDS011;10530;49.968;19.844;2023-12-29T03:07:03;4.33;;;1.70;;
20739;SDS011;10530;49.968;19.844;2023-12-29T03:12:06;4.55;;;1.52;;
20739;SDS011;10530;49.968;19.844;2023-12-29T03:17:09;4.22;;;1.58;;
20739;SDS011;10530;49.968;19.844;2023-12-29T03:22:12;6.63;;;1.80;;
20739;SDS011;10530;49.968;19.844;2023-12-29T03:27:15;5.68;;;2.13;;
20739;SDS011;10530;49.968;19.844;2023-12-29T03:32:18;4.13;;;1.47;;
20739;SDS011;10530;49.968;19.844;2023-12-29T03:37:21;4.07;;;1.63;;
20739;SDS011;10530;49.968;19.844;2023-12-29T03:42:24;4.45;;;1.52;;
20739;SDS011;10530;49.968;19.844;2023-12-29T03:47:28;4.67;;;1.57;;
20739;SDS011;10530;49.968;19.844;2023-12-29T03:52:32;4.18;;;1.70;;
20739;SDS011;10530;49.968;19.844;2023-12-29T03:57:35;4.17;;;1.57;;
20739;SDS011;10530;49.968;19.844;2023-12-29T04:02:37;4.32;;;1.60;;
20739;SDS011;10530;49.968;19.844;2023-12-29T04:07:40;3.42;;;1.27;;
20739;SDS011;10530;49.968;19.844;2023-12-29T04:12:43;2.50;;;0.83;;
20739;SDS011;10530;49.968;19.844;2023-12-29T04:17:47;4.60;;;1.38;;
20739;SDS011;10530;49.968;19.844;2023-12-29T04:22:50;3.63;;;1.20;;
20739;SDS011;10530;49.968;19.844;2023-12-29T04:27:53;3.78;;;1.35;;
20739;SDS011;10530;49.968;19.844;2023-12-29T04:32:56;4.80;;;1.52;;
20739;SDS011;10530;49.968;19.844;2023-12-29T04:37:59;2.90;;;1.07;;
20739;SDS011;10530;49.968;19.844;2023-12-29T04:43:02;3.80;;;1.52;;
20739;SDS011;10530;49.968;19.844;2023-12-29T04:48:06;2.73;;;1.17;;
20739;SDS011;10530;49.968;19.844;2023-12-29T04:53:09;5.97;;;1.88;;
20739;SDS011;10530;49.968;19.844;2023-12-29T04:58:12;7.13;;;1.80;;
20739;SDS011;10530;49.968;19.844;2023-12-29T05:03:15;5.63;;;1.80;;
20739;SDS011;10530;49.968;19.844;2023-12-29T05:08:18;4.00;;;1.77;;
20739;SDS011;10530;49.968;19.844;2023-12-29T05:13:20;3.87;;;1.50;;
20739;SDS011;10530;49.968;19.844;2023-12-29T05:18:23;3.20;;;1.10;;
20739;SDS011;10530;49.968;19.844;2023-12-29T05:23:26;3.67;;;1.25;;
20739;SDS011;10530;49.968;19.844;2023-12-29T05:28:29;6.53;;;2.40;;
20739;SDS011;10530;49.968;19.844;2023-12-29T05:33:32;3.92;;;1.50;;
20739;SDS011;10530;49.968;19.844;2023-12-29T05:38:36;4.47;;;1.67;;
20739;SDS011;10530;49.968;19.844;2023-12-29T05:43:40;5.78;;;1.88;;
20739;SDS011;10530;49.968;19.844;2023-12-29T05:48:42;6.03;;;2.03;;
20739;SDS011;10530;49.968;19.844;2023-12-29T05:53:45;6.80;;;2.00;;
20739;SDS011;10530;49.968;19.844;2023-12-29T05:58:48;7.82;;;2.47;;
20739;SDS011;10530;49.968;19.844;2023-12-29T06:03:51;5.67;;;2.33;;
20739;SDS011;10530;49.968;19.844;2023-12-29T06:08:54;9.00;;;3.10;;
20739;SDS011;10530;49.968;19.844;2023-12-29T06:13:57;6.50;;;2.92;;
20739;SDS011;10530;49.968;19.844;2023-12-29T06:19:00;8.17;;;3.50;;
20739;SDS011;10530;49.968;19.844;2023-12-29T06:24:03;12.20;;;4.75;;
20739;SDS011;10530;49.968;19.844;2023-12-29T06:29:06;9.60;;;3.80;;
20739;SDS011;10530;49.968;19.844;2023-12-29T06:34:09;8.55;;;3.03;;
20739;SDS011;10530;49.968;19.844;2023-12-29T06:39:13;8.15;;;2.28;;
20739;SDS011;10530;49.968;19.844;2023-12-29T06:44:15;6.73;;;2.20;;
20739;SDS011;10530;49.968;19.844;2023-12-29T06:49:18;5.63;;;1.55;;
20739;SDS011;10530;49.968;19.844;2023-12-29T06:54:21;4.17;;;1.80;;
20739;SDS011;10530;49.968;19.844;2023-12-29T06:59:24;5.35;;;1.63;;
20739;SDS011;10530;49.968;19.844;2023-12-29T07:04:27;3.88;;;1.35;;
20739;SDS011;10530;49.968;19.844;2023-12-29T07:09:30;3.40;;;1.13;;
20739;SDS011;10530;49.968;19.844;2023-12-29T07:14:33;3.25;;;1.10;;
20739;SDS011;10530;49.968;19.844;2023-12-29T07:19:37;3.77;;;1.50;;
20739;SDS011;10530;49.968;19.844;2023-12-29T07:24:40;2.88;;;0.90;;
20739;SDS011;10530;49.968;19.844;2023-12-29T07:29:43;5.10;;;1.20;;
20739;SDS011;10530;49.968;19.844;2023-12-29T07:34:46;3.83;;;1.40;;
20739;SDS011;10530;49.968;19.844;2023-12-29T07:39:51;4.88;;;1.40;;
20739;SDS011;10530;49.968;19.844;2023-12-29T07:44:54;4.97;;;1.63;;
20739;SDS011;10530;49.968;19.844;2023-12-29T07:49:58;6.68;;;2.42;;
20739;SDS011;10530;49.968;19.844;2023-12-29T07:55:01;5.05;;;1.30;;
20739;SDS011;10530;49.968;19.844;2023-12-29T08:00:05;4.73;;;1.27;;
20739;SDS011;10530;49.968;19.844;2023-12-29T08:05:12;5.25;;;1.60;;
20739;SDS011;10530;49.968;19.844;2023-12-29T08:10:17;4.50;;;1.57;;
20739;SDS011;10530;49.968;19.844;2023-12-29T08:15:21;4.35;;;1.80;;
20739;SDS011;10530;49.968;19.844;2023-12-29T08:20:24;3.63;;;1.27;;
20739;SDS011;10530;49.968;19.844;2023-12-29T08:25:27;3.70;;;1.30;;
20739;SDS011;10530;49.968;19.844;2023-12-29T08:30:30;5.90;;;1.90;;
20739;SDS011;10530;49.968;19.844;2023-12-29T08:35:36;4.00;;;1.67;;
20739;SDS011;10530;49.968;19.844;2023-12-29T08:40:40;6.07;;;2.05;;
20739;SDS011;10530;49.968;19.844;2023-12-29T08:45:44;4.03;;;1.33;;
20739;SDS011;10530;49.968;19.844;2023-12-29T08:50:47;5.30;;;1.93;;
20739;SDS011;10530;49.968;19.844;2023-12-29T08:55:50;5.82;;;2.33;;
20739;SDS011;10530;49.968;19.844;2023-12-29T09:00:53;4.97;;;2.07;;
20739;SDS011;10530;49.968;19.844;2023-12-29T09:05:56;4.15;;;1.38;;
20739;SDS011;10530;49.968;19.844;2023-12-29T09:11:01;5.78;;;2.00;;
20739;SDS011;10530;49.968;19.844;2023-12-29T09:16:05;3.17;;;1.13;;
20739;SDS011;10530;49.968;19.844;2023-12-29T09:21:08;4.35;;;1.60;;
20739;SDS011;10530;49.968;19.844;2023-12-29T09:26:11;5.60;;;1.50;;
20739;SDS011;10530;49.968;19.844;2023-12-29T09:31:14;3.92;;;1.58;;
20739;SDS011;10530;49.968;19.844;2023-12-29T09:36:18;5.65;;;2.28;;
20739;SDS011;10530;49.968;19.844;2023-12-29T09:41:22;8.83;;;3.07;;
20739;SDS011;10530;49.968;19.844;2023-12-29T09:46:27;4.57;;;1.80;;
20739;SDS011;10530;49.968;19.844;2023-12-29T09:51:36;5.17;;;1.73;;
20739;SDS011;10530;49.968;19.844;2023-12-29T09:56:40;3.58;;;1.33;;
20739;SDS011;10530;49.968;19.844;2023-12-29T10:01:44;3.53;;;1.33;;
20739;SDS011;10530;49.968;19.844;2023-12-29T10:06:48;14.10;;;6.70;;
20739;SDS011;10530;49.968;19.844;2023-12-29T10:11:53;4.50;;;1.80;;
20739;SDS011;10530;49.968;19.844;2023-12-29T10:17:00;3.93;;;1.10;;
20739;SDS011;10530;49.968;19.844;2023-12-29T10:27:36;3.35;;;1.30;;
20739;SDS011;10530;49.968;19.844;2023-12-29T10:32:39;2.83;;;1.00;;
20739;SDS011;10530;49.968;19.844;2023-12-29T10:37:42;3.43;;;1.30;;
20739;SDS011;10530;49.968;19.844;2023-12-29T10:42:51;3.83;;;1.43;;
20739;SDS011;10530;49.968;19.844;2023-12-29T10:47:55;3.10;;;1.00;;
20739;SDS011;10530;49.968;19.844;2023-12-29T10:53:20;4.82;;;1.42;;
20739;SDS011;10530;49.968;19.844;2023-12-29T10:58:22;4.20;;;1.27;;
20739;SDS011;10530;49.968;19.844;2023-12-29T11:03:27;3.45;;;1.40;;
20739;SDS011;10530;49.968;19.844;2023-12-29T11:08:30;3.63;;;1.50;;
20739;SDS011;10530;49.968;19.844;2023-12-29T11:13:38;4.05;;;1.20;;
20739;SDS011;10530;49.968;19.844;2023-12-29T11:18:43;3.72;;;1.20;;
20739;SDS011;10530;49.968;19.844;2023-12-29T11:23:49;5.83;;;2.53;;
20739;SDS011;10530;49.968;19.844;2023-12-29T11:28:52;4.82;;;1.83;;
20739;SDS011;10530;49.968;19.844;2023-12-29T11:33:57;4.23;;;1.90;;
20739;SDS011;10530;49.968;19.844;2023-12-29T11:44:14;4.90;;;1.42;;
20739;SDS011;10530;49.968;19.844;2023-12-29T11:49:57;5.07;;;1.63;;
20739;SDS011;10530;49.968;19.844;2023-12-29T11:55:09;11.38;;;1.55;;
20739;SDS011;10530;49.968;19.844;2023-12-29T12:00:14;7.77;;;3.07;;
20739;SDS011;10530;49.968;19.844;2023-12-29T12:05:44;4.63;;;2.13;;
20739;SDS011;10530;49.968;19.844;2023-12-29T12:10:49;5.10;;;2.15;;
20739;SDS011;10530;49.968;19.844;2023-12-29T12:15:52;6.53;;;2.23;;
20739;SDS011;10530;49.968;19.844;2023-12-29T12:20:55;6.28;;;2.80;;
20739;SDS011;10530;49.968;19.844;2023-12-29T12:26:00;4.87;;;2.17;;
20739;SDS011;10530;49.968;19.844;2023-12-29T12:31:06;6.28;;;2.22;;
20739;SDS011;10530;49.968;19.844;2023-12-29T12:36:11;6.90;;;2.13;;
20739;SDS011;10530;49.968;19.844;2023-12-29T12:41:14;6.60;;;3.00;;
20739;SDS011;10530;49.968;19.844;2023-12-29T12:46:21;8.55;;;3.88;;
20739;SDS011;10530;49.968;19.844;2023-12-29T12:51:28;12.40;;;4.00;;
20739;SDS011;10530;49.968;19.844;2023-12-29T12:56:32;9.30;;;4.00;;
20739;SDS011;10530;49.968;19.844;2023-12-29T13:01:37;6.30;;;2.72;;
20739;SDS011;10530;49.968;19.844;2023-12-29T13:06:42;4.77;;;2.00;;
20739;SDS011;10530;49.968;19.844;2023-12-29T13:11:50;9.00;;;3.85;;
20739;SDS011;10530;49.968;19.844;2023-12-29T13:16:53;8.23;;;3.40;;
20739;SDS011;10530;49.968;19.844;2023-12-29T13:21:56;6.97;;;2.55;;
20739;SDS011;10530;49.968;19.844;2023-12-29T13:27:05;5.65;;;2.22;;
20739;SDS011;10530;49.968;19.844;2023-12-29T13:42:28;4.37;;;1.70;;
20739;SDS011;10530;49.968;19.844;2023-12-29T13:47:34;3.90;;;1.42;;
20739;SDS011;10530;49.968;19.844;2023-12-29T13:52:39;4.88;;;1.95;;
20739;SDS011;10530;49.968;19.844;2023-12-29T13:57:42;5.33;;;1.80;;
20739;SDS011;10530;49.968;19.844;2023-12-29T14:02:48;3.90;;;1.60;;
20739;SDS011;10530;49.968;19.844;2023-12-29T14:08:04;3.13;;;1.27;;
20739;SDS011;10530;49.968;19.844;2023-12-29T14:13:13;5.03;;;2.13;;
20739;SDS011;10530;49.968;19.844;2023-12-29T14:23:24;7.50;;;2.20;;
20739;SDS011;10530;49.968;19.844;2023-12-29T14:28:27;5.40;;;2.40;;
20739;SDS011;10530;49.968;19.844;2023-12-29T14:33:30;5.53;;;2.20;;
20739;SDS011;10530;49.968;19.844;2023-12-29T14:38:33;6.32;;;1.90;;
20739;SDS011;10530;49.968;19.844;2023-12-29T14:43:37;5.75;;;1.80;;
20739;SDS011;10530;49.968;19.844;2023-12-29T14:48:40;5.90;;;1.90;;
20739;SDS011;10530;49.968;19.844;2023-12-29T14:53:45;6.65;;;1.90;;
20739;SDS011;10530;49.968;19.844;2023-12-29T14:58:50;7.17;;;2.47;;
20739;SDS011;10530;49.968;19.844;2023-12-29T15:03:53;11.02;;;3.08;;
20739;SDS011;10530;49.968;19.844;2023-12-29T15:08:56;9.35;;;4.03;;
20739;SDS011;10530;49.968;19.844;2023-12-29T15:13:59;12.83;;;5.63;;
20739;SDS011;10530;49.968;19.844;2023-12-29T15:19:02;14.13;;;5.75;;
20739;SDS011;10530;49.968;19.844;2023-12-29T15:24:08;12.93;;;4.30;;
20739;SDS011;10530;49.968;19.844;2023-12-29T15:29:11;13.57;;;4.75;;
20739;SDS011;10530;49.968;19.844;2023-12-29T15:34:13;13.20;;;5.75;;
20739;SDS011;10530;49.968;19.844;2023-12-29T15:39:17;15.87;;;5.37;;
20739;SDS011;10530;49.968;19.844;2023-12-29T15:44:20;21.52;;;6.78;;
20739;SDS011;10530;49.968;19.844;2023-12-29T15:49:23;15.57;;;6.10;;
20739;SDS011;10530;49.968;19.844;2023-12-29T15:54:26;15.07;;;5.70;;
20739;SDS011;10530;49.968;19.844;2023-12-29T15:59:30;14.70;;;6.18;;
20739;SDS011;10530;49.968;19.844;2023-12-29T16:04:33;12.63;;;5.07;;
20739;SDS011;10530;49.968;19.844;2023-12-29T16:09:36;12.10;;;4.80;;
20739;SDS011;10530;49.968;19.844;2023-12-29T16:14:39;13.47;;;5.03;;
20739;SDS011;10530;49.968;19.844;2023-12-29T16:19:42;10.52;;;3.92;;
20739;SDS011;10530;49.968;19.844;2023-12-29T16:24:46;14.65;;;5.72;;
20739;SDS011;10530;49.968;19.844;2023-12-29T16:29:51;8.93;;;4.07;;
20739;SDS011;10530;49.968;19.844;2023-12-29T16:34:54;7.88;;;2.83;;
20739;SDS011;10530;49.968;19.844;2023-12-29T16:39:57;8.73;;;3.00;;
20739;SDS011;10530;49.968;19.844;2023-12-29T16:45:00;6.68;;;2.53;;
20739;SDS011;10530;49.968;19.844;2023-12-29T16:50:03;7.95;;;3.25;;
20739;SDS011;10530;49.968;19.844;2023-12-29T16:55:06;13.17;;;3.93;;
20739;SDS011;10530;49.968;19.844;2023-12-29T17:00:09;13.40;;;4.47;;
20739;SDS011;10530;49.968;19.844;2023-12-29T17:05:13;9.03;;;3.30;;
20739;SDS011;10530;49.968;19.844;2023-12-29T17:10:16;7.22;;;2.55;;
20739;SDS011;10530;49.968;19.844;2023-12-29T17:15:19;7.72;;;2.83;;
20739;SDS011;10530;49.968;19.844;2023-12-29T17:20:23;5.87;;;3.13;;
20739;SDS011;10530;49.968;19.844;2023-12-29T17:25:26;9.18;;;2.95;;
20739;SDS011;10530;49.968;19.844;2023-12-29T17:30:29;8.47;;;2.97;;
20739;SDS011;10530;49.968;19.844;2023-12-29T17:35:32;4.45;;;1.52;;
20739;SDS011;10530;49.968;19.844;2023-12-29T17:40:35;8.13;;;2.92;;
20739;SDS011;10530;49.968;19.844;2023-12-29T17:45:38;6.27;;;2.47;;
20739;SDS011;10530;49.968;19.844;2023-12-29T17:50:41;8.77;;;2.83;;
20739;SDS011;10530;49.968;19.844;2023-12-29T17:55:44;9.60;;;3.27;;
20739;SDS011;10530;49.968;19.844;2023-12-29T18:00:48;5.90;;;2.00;;
20739;SDS011;10530;49.968;19.844;2023-12-29T18:05:52;7.38;;;1.92;;
20739;SDS011;10530;49.968;19.844;2023-12-29T18:10:56;7.57;;;2.33;;
20739;SDS011;10530;49.968;19.844;2023-12-29T18:16:00;7.03;;;3.00;;
20739;SDS011;10530;49.968;19.844;2023-12-29T18:21:04;7.00;;;2.90;;
20739;SDS011;10530;49.968;19.844;2023-12-29T18:26:07;6.50;;;2.10;;
20739;SDS011;10530;49.968;19.844;2023-12-29T18:31:11;7.25;;;2.58;;
20739;SDS011;10530;49.968;19.844;2023-12-29T18:36:15;9.30;;;2.80;;
20739;SDS011;10530;49.968;19.844;2023-12-29T18:41:19;5.97;;;2.60;;
20739;SDS011;10530;49.968;19.844;2023-12-29T18:46:21;7.33;;;2.60;;
20739;SDS011;10530;49.968;19.844;2023-12-29T18:51:25;6.72;;;1.95;;
20739;SDS011;10530;49.968;19.844;2023-12-29T18:56:28;6.93;;;2.90;;
20739;SDS011;10530;49.968;19.844;2023-12-29T19:01:30;4.67;;;2.00;;
20739;SDS011;10530;49.968;19.844;2023-12-29T19:06:34;8.48;;;2.85;;
20739;SDS011;10530;49.968;19.844;2023-12-29T19:11:37;6.53;;;2.90;;
20739;SDS011;10530;49.968;19.844;2023-12-29T19:16:40;11.55;;;2.67;;
20739;SDS011;10530;49.968;19.844;2023-12-29T19:21:43;6.07;;;2.25;;
20739;SDS011;10530;49.968;19.844;2023-12-29T19:26:49;7.83;;;3.17;;
20739;SDS011;10530;49.968;19.844;2023-12-29T19:31:52;7.55;;;2.83;;
20739;SDS011;10530;49.968;19.844;2023-12-29T19:36:56;9.37;;;3.20;;
20739;SDS011;10530;49.968;19.844;2023-12-29T19:42:00;7.72;;;3.05;;
20739;SDS011;10530;49.968;19.844;2023-12-29T19:47:05;10.00;;;3.50;;
20739;SDS011;10530;49.968;19.844;2023-12-29T19:52:08;8.03;;;3.17;;
20739;SDS011;10530;49.968;19.844;2023-12-29T19:57:12;9.70;;;3.78;;
20739;SDS011;10530;49.968;19.844;2023-12-29T20:02:15;8.67;;;2.80;;
20739;SDS011;10530;49.968;19.844;2023-12-29T20:07:18;5.93;;;2.60;;
20739;SDS011;10530;49.968;19.844;2023-12-29T20:12:22;5.57;;;2.00;;
20739;SDS011;10530;49.968;19.844;2023-12-29T20:17:26;7.47;;;2.50;;
20739;SDS011;10530;49.968;19.844;2023-12-29T20:22:32;6.88;;;2.55;;
20739;SDS011;10530;49.968;19.844;2023-12-29T20:27:35;4.60;;;1.70;;
20739;SDS011;10530;49.968;19.844;2023-12-29T20:32:38;6.03;;;2.03;;
20739;SDS011;10530;49.968;19.844;2023-12-29T20:37:41;3.83;;;1.35;;
20739;SDS011;10530;49.968;19.844;2023-12-29T20:42:44;6.37;;;2.63;;
20739;SDS011;10530;49.968;19.844;2023-12-29T20:47:48;4.82;;;1.92;;
20739;SDS011;10530;49.968;19.844;2023-12-29T20:52:51;5.93;;;2.07;;
20739;SDS011;10530;49.968;19.844;2023-12-29T20:57:54;5.72;;;2.08;;
20739;SDS011;10530;49.968;19.844;2023-12-29T21:02:56;4.57;;;1.88;;
20739;SDS011;10530;49.968;19.844;2023-12-29T21:08:00;4.87;;;1.90;;
20739;SDS011;10530;49.968;19.844;2023-12-29T21:13:04;6.88;;;2.60;;
20739;SDS011;10530;49.968;19.844;2023-12-29T21:18:07;5.30;;;2.07;;
20739;SDS011;10530;49.968;19.844;2023-12-29T21:23:10;4.20;;;1.73;;
20739;SDS011;10530;49.968;19.844;2023-12-29T21:28:13;3.53;;;1.38;;
20739;SDS011;10530;49.968;19.844;2023-12-29T21:33:16;6.20;;;1.90;;
20739;SDS011;10530;49.968;19.844;2023-12-29T21:38:19;2.80;;;1.10;;
20739;SDS011;10530;49.968;19.844;2023-12-29T21:43:22;5.73;;;2.13;;
20739;SDS011;10530;49.968;19.844;2023-12-29T21:48:25;6.05;;;1.90;;
20739;SDS011;10530;49.968;19.844;2023-12-29T21:53:28;5.47;;;1.80;;
20739;SDS011;10530;49.968;19.844;2023-12-29T21:58:31;5.13;;;1.83;;
20739;SDS011;10530;49.968;19.844;2023-12-29T22:03:37;4.88;;;2.25;;
20739;SDS011;10530;49.968;19.844;2023-12-29T22:08:40;6.30;;;2.40;;
20739;SDS011;10530;49.968;19.844;2023-12-29T22:13:44;5.57;;;1.95;;
20739;SDS011;10530;49.968;19.844;2023-12-29T22:18:47;5.55;;;1.45;;
20739;SDS011;10530;49.968;19.844;2023-12-29T22:23:50;4.97;;;1.80;;
20739;SDS011;10530;49.968;19.844;2023-12-29T22:28:54;4.50;;;1.45;;
20739;SDS011;10530;49.968;19.844;2023-12-29T22:33:57;3.23;;;1.30;;
20739;SDS011;10530;49.968;19.844;2023-12-29T22:39:00;7.63;;;2.08;;
20739;SDS011;10530;49.968;19.844;2023-12-29T22:44:03;2.83;;;1.00;;
20739;SDS011;10530;49.968;19.844;2023-12-29T22:49:06;3.93;;;1.00;;
20739;SDS011;10530;49.968;19.844;2023-12-29T22:54:10;2.92;;;1.08;;
20739;SDS011;10530;49.968;19.844;2023-12-29T22:59:13;3.23;;;1.40;;
20739;SDS011;10530;49.968;19.844;2023-12-29T23:04:15;4.25;;;1.33;;
20739;SDS011;10530;49.968;19.844;2023-12-29T23:09:18;5.35;;;1.65;;
20739;SDS011;10530;49.968;19.844;2023-12-29T23:14:21;5.70;;;2.10;;
20739;SDS011;10530;49.968;19.844;2023-12-29T23:19:24;5.00;;;1.65;;
20739;SDS011;10530;49.968;19.844;2023-12-29T23:24:27;4.77;;;1.80;;
20739;SDS011;10530;49.968;19.844;2023-12-29T23:29:30;4.05;;;1.15;;
20739;SDS011;10530;49.968;19.844;2023-12-29T23:34:33;6.20;;;1.85;;
20739;SDS011;10530;49.968;19.844;2023-12-29T23:39:36;4.83;;;1.87;;
20739;SDS011;10530;49.968;19.844;2023-12-29T23:44:39;5.15;;;2.00;;
20739;SDS011;10530;49.968;19.844;2023-12-29T23:49:42;4.73;;;2.03;;
20739;SDS011;10530;49.968;19.844;2023-12-29T23:54:47;3.85;;;1.40;;
20739;SDS011;10530;49.968;19.844;2023-12-29T23:59:50;5.07;;;1.13;;
